Time;durP1;ratioP1;P1;durP2;ratioP2;P2;SDS_P1;SDS_P2;PMS_P1;PMS_P2;Temp;Humidity;BMP_temperature;BMP_pressure;BME280_temperature;BME280_humidity;BME280_pressure;Samples;Min_cycle;Max_cycle;Signal;HPM_P1;HPM_P2
2022/12/11 00:02:50;;;;;;;10.73;8.47;;;;;;;;;;5129247;28;20069;-57
2022/12/11 00:05:32;;;;;;;8.10;6.00;;;;;;;;;;5129369;28;20027;-57
2022/12/11 00:11:16;;;;;;;13.60;8.83;;;;;;;;;;5129498;28;20032;-56
2022/12/11 00:17:10;;;;;;;10.30;8.30;;;;;;;;;;5072419;28;20063;-55
2022/12/11 00:26:01;;;;;;;13.83;8.23;;;;;;;;;;5128682;28;20031;-56
2022/12/11 00:28:46;;;;;;;;;;;;;;;;;;;;;
2022/12/11 00:35:05;;;;;;;9.63;8.60;;;;;;;;;;5110421;28;20138;-59
2022/12/11 00:37:56;;;;;;;11.90;10.63;;;;;;;;;;5112699;28;20039;-56
2022/12/11 00:40:46;;;;;;;14.35;10.93;;;;;;;;;;5129582;28;20031;-56
2022/12/11 00:43:37;;;;;;;9.20;7.90;;;;;;;;;;5111010;28;20032;-57
2022/12/11 00:46:07;;;;;;;11.73;8.93;;;;;;;;;;5106021;28;20028;-55
2022/12/11 00:48:55;;;;;;;10.00;8.10;;;;;;;;;;5128780;28;20027;-55
2022/12/11 00:51:59;;;;;;;10.53;9.20;;;;;;;;;;5129315;28;20020;-57
2022/12/11 00:54:56;;;;;;;12.67;8.67;;;;;;;;;;5124630;28;20040;-56
2022/12/11 00:57:36;;;;;;;10.40;9.40;;;;;;;;;;5128424;28;20051;-57
2022/12/11 01:00:11;;;;;;;;;;;;;;;;;;5129686;28;20381;-55
2022/12/11 01:02:38;;;;;;;10.63;8.03;;;;;;;;;;5110364;28;19904;-55
2022/12/11 01:05:24;;;;;;;9.77;8.37;;;;;;;;;;5128896;28;20023;-56
2022/12/11 01:08:19;;;;;;;11.90;9.97;;;;;;;;;;5128860;28;20057;-56
2022/12/11 01:10:51;;;;;;;13.37;11.27;;;;;;;;;;5110364;28;20104;-56
2022/12/11 01:13:45;;;;;;;;;;;;;;;;;;;;;
2022/12/11 01:16:40;;;;;;;18.93;13.50;;;;;;;;;;5112858;28;20055;-57
2022/12/11 01:19:23;;;;;;;14.53;9.87;;;;;;;;;;5129223;28;20498;-55
2022/12/11 01:22:21;;;;;;;;;;;;;;;;;;;;;
2022/12/11 01:25:05;;;;;;;13.70;8.23;;;;;;;;;;5123017;28;20066;-52
2022/12/11 01:31:01;;;;;;;8.37;7.57;;;;;;;;;;5026181;28;20093;-56
2022/12/11 01:34:07;;;;;;;;;;;;;;;;;;;;;
2022/12/11 01:36:44;;;;;;;;;;;;;;;;;;;;;
2022/12/11 01:42:43;;;;;;;10.47;9.40;;;;;;;;;;5066907;28;20043;-55
2022/12/11 01:45:37;;;;;;;10.13;9.07;;;;;;;;;;5128602;28;20417;-52
2022/12/11 01:51:39;;;;;;;10.43;9.30;;;;;;;;;;5026450;28;20057;-57
2022/12/11 01:54:28;;;;;;;14.53;9.93;;;;;;;;;;5009947;28;20029;-56
2022/12/11 01:57:05;;;;;;;9.47;8.53;;;;;;;;;;5013992;28;20167;-57
2022/12/11 01:59:42;;;;;;;8.53;7.70;;;;;;;;;;5017028;28;20636;-56
2022/12/11 02:02:43;;;;;;;10.77;9.73;;;;;;;;;;5060181;28;20400;-57
2022/12/11 02:08:20;;;;;;;11.80;9.80;;;;;;;;;;5015969;28;20101;-54
2022/12/11 02:17:39;;;;;;;15.17;8.10;;;;;;;;;;5046403;28;20136;-56
2022/12/11 02:20:37;;;;;;;14.57;9.33;;;;;;;;;;5096153;28;20047;-57
2022/12/11 02:23:15;;;;;;;9.43;8.33;;;;;;;;;;5128747;28;20113;-57
2022/12/11 02:26:05;;;;;;;11.43;10.30;;;;;;;;;;5128702;28;20456;-57
2022/12/11 02:28:55;;;;;;;15.60;11.70;;;;;;;;;;5127982;28;20055;-52
2022/12/11 02:31:40;;;;;;;21.13;12.27;;;;;;;;;;5126179;28;20457;-57
2022/12/11 02:34:20;;;;;;;11.60;9.10;;;;;;;;;;5126704;28;20023;-55
2022/12/11 02:42:56;;;;;;;13.73;8.63;;;;;;;;;;5127487;28;20044;-56
2022/12/11 02:45:42;;;;;;;11.93;10.10;;;;;;;;;;5131839;28;20026;-55
2022/12/11 02:48:16;;;;;;;11.83;8.47;;;;;;;;;;5114035;28;20039;-54
2022/12/11 02:50:54;;;;;;;14.50;12.87;;;;;;;;;;5131508;28;20491;-56
2022/12/11 02:53:48;;;;;;;11.37;9.27;;;;;;;;;;5131445;28;20015;-56
2022/12/11 02:56:22;;;;;;;9.37;6.87;;;;;;;;;;5130030;28;20058;-52
2022/12/11 02:59:01;;;;;;;9.87;7.90;;;;;;;;;;5125902;28;20052;-55
2022/12/11 03:05:05;;;;;;;9.70;7.93;;;;;;;;;;5127830;28;20089;-56
2022/12/11 03:08:24;;;;;;;10.47;9.30;;;;;;;;;;5131991;28;20032;-55
2022/12/11 03:11:03;;;;;;;11.63;9.07;;;;;;;;;;5052812;28;20044;-52
2022/12/11 03:13:32;;;;;;;12.67;9.30;;;;;;;;;;5066822;28;20044;-55
2022/12/11 03:16:31;;;;;;;14.43;10.33;;;;;;;;;;5111574;28;20031;-56
2022/12/11 03:19:23;;;;;;;11.17;8.50;;;;;;;;;;5088955;28;20104;-57
2022/12/11 03:22:11;;;;;;;13.83;10.50;;;;;;;;;;5060549;28;20052;-57
2022/12/11 03:28:33;;;;;;;13.10;9.27;;;;;;;;;;5048574;28;20060;-56
2022/12/11 03:31:24;;;;;;;9.30;7.50;;;;;;;;;;5017971;28;20029;-55
2022/12/11 03:34:07;;;;;;;13.53;10.70;;;;;;;;;;5031959;28;20108;-57
2022/12/11 03:36:51;;;;;;;12.80;9.90;;;;;;;;;;5048450;28;20794;-56
2022/12/11 03:42:36;;;;;;;13.37;9.63;;;;;;;;;;5130972;28;20057;-54
2022/12/11 03:45:37;;;;;;;12.00;8.57;;;;;;;;;;5130799;28;20073;-55
2022/12/11 03:48:29;;;;;;;10.83;8.90;;;;;;;;;;5078567;28;20036;-57
2022/12/11 03:51:24;;;;;;;9.17;8.27;;;;;;;;;;5130297;28;20042;-54
2022/12/11 03:54:09;;;;;;;9.43;8.53;;;;;;;;;;5097125;28;20516;-55
2022/12/11 03:59:55;;;;;;;10.33;8.20;;;;;;;;;;5130678;28;20152;-56
2022/12/11 04:11:38;;;;;;;9.90;8.63;;;;;;;;;;5109398;28;20050;-54
2022/12/11 04:29:42;;;;;;;7.67;6.87;;;;;;;;;;5041735;28;20104;-57
2022/12/11 04:32:23;;;;;;;7.23;5.80;;;;;;;;;;4997652;28;20492;-57
2022/12/11 04:38:10;;;;;;;9.20;8.13;;;;;;;;;;5032181;28;20069;-57
2022/12/11 04:46:44;;;;;;;10.00;7.07;;;;;;;;;;5030106;28;19955;-56
2022/12/11 04:49:27;;;;;;;7.37;5.43;;;;;;;;;;5031882;28;20125;-57
2022/12/11 04:55:22;;;;;;;;;;;;;;;;;;;;;
2022/12/11 04:57:49;;;;;;;7.80;6.43;;;;;;;;;;5042167;28;20058;-56
2022/12/11 05:03:42;;;;;;;9.07;7.17;;;;;;;;;;5091839;28;20044;-54
2022/12/11 05:06:22;;;;;;;8.97;6.77;;;;;;;;;;5095618;28;20369;-56
2022/12/11 05:08:56;;;;;;;8.60;6.63;;;;;;;;;;5095028;28;20036;-56
2022/12/11 05:11:49;;;;;;;11.37;8.40;;;;;;;;;;5094277;28;20043;-57
2022/12/11 05:17:59;;;;;;;;;;;;;;;;;;;;;
2022/12/11 05:20:35;;;;;;;10.73;8.60;;;;;;;;;;5034293;28;20102;-55
2022/12/11 05:23:30;;;;;;;10.70;9.57;;;;;;;;;;5114591;28;20056;-56
2022/12/11 05:26:15;;;;;;;8.27;6.37;;;;;;;;;;5115440;28;20472;-55
2022/12/11 05:29:22;;;;;;;7.67;6.63;;;;;;;;;;5115351;28;20034;-55
2022/12/11 05:32:01;;;;;;;7.90;6.93;;;;;;;;;;5123328;28;20020;-57
2022/12/11 05:34:53;;;;;;;8.97;6.53;;;;;;;;;;5128295;28;20054;-57
2022/12/11 05:37:35;;;;;;;8.07;7.27;;;;;;;;;;5025578;28;20057;-57
2022/12/11 05:40:08;;;;;;;10.33;7.70;;;;;;;;;;5010008;28;20097;-57
2022/12/11 05:42:52;;;;;;;9.63;8.50;;;;;;;;;;5025771;28;20038;-57
2022/12/11 05:45:48;;;;;;;9.40;7.80;;;;;;;;;;5008243;28;20038;-56
2022/12/11 05:58:11;;;;;;;8.30;7.40;;;;;;;;;;5078462;28;20073;-56
2022/12/11 06:01:18;;;;;;;7.87;6.53;;;;;;;;;;5107830;28;20063;-56
2022/12/11 06:03:53;;;;;;;6.07;5.17;;;;;;;;;;5107144;28;20034;-55
2022/12/11 06:12:55;;;;;;;6.53;5.93;;;;;;;;;;5104465;28;20024;-54
2022/12/11 06:15:27;;;;;;;7.07;6.40;;;;;;;;;;5057261;28;20048;-54
2022/12/11 06:18:18;;;;;;;8.23;6.90;;;;;;;;;;5110659;28;20032;-56
2022/12/11 06:21:07;;;;;;;13.90;7.37;;;;;;;;;;5104302;28;20042;-56
2022/12/11 06:24:20;;;;;;;6.60;5.97;;;;;;;;;;5109533;28;20076;-56
2022/12/11 06:26:52;;;;;;;9.63;6.50;;;;;;;;;;5030114;28;20058;-52
2022/12/11 06:29:30;;;;;;;8.47;7.00;;;;;;;;;;5029980;28;20037;-55
2022/12/11 06:32:12;;;;;;;;;;;;;;;;;;;;;
2022/12/11 06:35:04;;;;;;;;;;;;;;;;;;;;;
2022/12/11 06:37:43;;;;;;;9.70;7.53;;;;;;;;;;5082458;28;20107;-55
2022/12/11 06:40:53;;;;;;;10.93;7.80;;;;;;;;;;5097838;28;20032;-56
2022/12/11 06:46:38;;;;;;;8.43;6.33;;;;;;;;;;5034055;28;20111;-55
2022/12/11 06:49:36;;;;;;;7.17;5.50;;;;;;;;;;5096994;28;20039;-56
2022/12/11 06:55:24;;;;;;;6.80;5.83;;;;;;;;;;5069026;28;20038;-53
2022/12/11 06:57:56;;;;;;;7.43;6.27;;;;;;;;;;5100764;28;20051;-53
2022/12/11 07:00:48;;;;;;;;;;;;;;;;;;;;;
2022/12/11 07:03:35;;;;;;;7.93;6.50;;;;;;;;;;5070827;28;20436;-56
2022/12/11 07:06:34;;;;;;;8.30;7.13;;;;;;;;;;5103738;28;20040;-56
2022/12/11 07:12:25;;;;;;;10.97;7.23;;;;;;;;;;5114084;28;20030;-55
2022/12/11 07:15:17;;;;;;;9.10;8.20;;;;;;;;;;5014729;28;20038;-55
2022/12/11 07:17:58;;;;;;;10.00;7.50;;;;;;;;;;5117046;28;20039;-56
2022/12/11 07:20:33;;;;;;;7.70;6.70;;;;;;;;;;5096808;28;20462;-54
2022/12/11 07:23:16;;;;;;;9.73;6.83;;;;;;;;;;5097887;28;20525;-55
2022/12/11 07:29:09;;;;;;;8.57;6.43;;;;;;;;;;5087582;28;20032;-55
2022/12/11 07:31:35;;;;;;;6.53;4.00;;;;;;;;;;5116886;28;20036;-55
2022/12/11 07:34:40;;;;;;;;;;;;;;;;;;;;;
2022/12/11 07:46:23;;;;;;;14.10;7.50;;;;;;;;;;5116584;28;20026;-56
2022/12/11 07:48:49;;;;;;;;;;;;;;;;;;5117600;28;20472;-55
2022/12/11 07:51:34;;;;;;;8.00;5.50;;;;;;;;;;5117253;28;19904;-55
2022/12/11 07:57:58;;;;;;;8.30;6.97;;;;;;;;;;4954861;28;20047;-55
2022/12/11 08:03:37;;;;;;;10.97;9.00;;;;;;;;;;5063791;28;20062;-55
2022/12/11 08:10:01;;;;;;;11.13;7.20;;;;;;;;;;5033385;28;20029;-56
2022/12/11 08:12:51;;;;;;;9.83;8.90;;;;;;;;;;5034203;28;20033;-56
2022/12/11 08:15:45;;;;;;;11.27;7.97;;;;;;;;;;5033524;28;20033;-52
2022/12/11 08:21:39;;;;;;;9.80;8.10;;;;;;;;;;5014089;28;20092;-56
2022/12/11 08:24:34;;;;;;;10.33;8.77;;;;;;;;;;5030569;28;20033;-56
2022/12/11 08:27:32;;;;;;;;;;;;;;;;;;;;;
2022/12/11 08:36:48;;;;;;;12.33;9.10;;;;;;;;;;4959242;28;20375;-56
2022/12/11 08:39:49;;;;;;;;;;;;;;;;;;;;;
2022/12/11 08:42:26;;;;;;;15.00;9.55;;;;;;;;;;5035079;28;20111;-54
2022/12/11 08:45:19;;;;;;;13.00;8.90;;;;;;;;;;5095301;28;20020;-52
2022/12/11 08:48:12;;;;;;;14.57;9.83;;;;;;;;;;5077019;28;20397;-56
2022/12/11 08:51:01;;;;;;;9.87;8.87;;;;;;;;;;5095738;28;20131;-56
2022/12/11 08:53:39;;;;;;;11.57;7.20;;;;;;;;;;5099232;28;20027;-56
2022/12/11 08:56:45;;;;;;;12.90;7.60;;;;;;;;;;5075810;28;20036;-55
2022/12/11 08:59:39;;;;;;;10.87;9.53;;;;;;;;;;5107821;28;20043;-55
2022/12/11 09:05:50;;;;;;;12.68;7.72;;;;;;;;;;5088842;28;20031;-56
2022/12/11 09:09:04;;;;;;;9.43;8.50;;;;;;;;;;5108298;28;20046;-55
2022/12/11 09:12:00;;;;;;;9.93;7.13;;;;;;;;;;5114662;28;20024;-56
2022/12/11 09:17:56;;;;;;;11.77;9.90;;;;;;;;;;5115202;28;20081;-56
2022/12/11 09:20:39;;;;;;;8.80;7.30;;;;;;;;;;5012275;28;20511;-57
2022/12/11 09:23:22;;;;;;;10.83;8.13;;;;;;;;;;5012684;28;20088;-57
2022/12/11 09:25:59;;;;;;;12.13;9.80;;;;;;;;;;5106705;28;20031;-58
2022/12/11 09:31:42;;;;;;;7.93;6.57;;;;;;;;;;5031723;28;20021;-57
2022/12/11 09:34:31;;;;;;;15.60;9.37;;;;;;;;;;5032046;28;20087;-57
2022/12/11 09:37:19;;;;;;;12.60;8.27;;;;;;;;;;5025736;28;20056;-56
2022/12/11 09:40:04;;;;;;;9.83;8.87;;;;;;;;;;5014929;28;20022;-57
2022/12/11 09:46:07;;;;;;;9.43;8.53;;;;;;;;;;4999854;28;20042;-56
2022/12/11 09:48:52;;;;;;;11.20;9.67;;;;;;;;;;5036101;28;20042;-57
2022/12/11 09:51:29;;;;;;;;;;;;;;;;;;;;;
2022/12/11 09:57:25;;;;;;;14.67;9.60;;;;;;;;;;5118752;28;20160;-58
2022/12/11 10:05:55;;;;;;;14.50;9.03;;;;;;;;;;5118876;28;20091;-56
2022/12/11 10:11:38;;;;;;;7.77;6.97;;;;;;;;;;5107946;28;20053;-58
2022/12/11 10:14:25;;;;;;;11.33;8.73;;;;;;;;;;5118134;28;20080;-57
2022/12/11 10:17:10;;;;;;;14.30;10.47;;;;;;;;;;5118566;28;20024;-57
2022/12/11 10:23:04;;;;;;;;;;;;;;;;;;;;;
2022/12/11 10:26:09;;;;;;;17.47;10.70;;;;;;;;;;5115906;28;20122;-58
2022/12/11 10:28:43;;;;;;;11.97;9.33;;;;;;;;;;5118836;28;20031;-57
2022/12/11 10:37:33;;;;;;;9.33;8.23;;;;;;;;;;5118095;28;20029;-55
2022/12/11 10:40:35;;;;;;;12.87;9.40;;;;;;;;;;5118214;28;20039;-57
2022/12/11 10:44:17;;;;;;;12.70;9.17;;;;;;;;;;5116254;28;20032;-54
2022/12/11 10:46:45;;;;;;;11.50;8.93;;;;;;;;;;5019430;28;20143;-55
2022/12/11 10:50:03;;;;;;;10.13;8.27;;;;;;;;;;5065222;28;20137;-57
2022/12/11 10:52:24;;;;;;;14.50;10.50;;;;;;;;;;5114800;28;20108;-53
2022/12/11 10:55:21;;;;;;;10.10;8.33;;;;;;;;;;5099704;28;20034;-56
2022/12/11 10:58:11;;;;;;;11.07;6.87;;;;;;;;;;5119825;28;20028;-56
2022/12/11 11:01:06;;;;;;;9.73;8.55;;;;;;;;;;5098740;28;20469;-56
2022/12/11 11:04:05;;;;;;;12.90;9.50;;;;;;;;;;5130681;28;20055;-56
2022/12/11 11:06:43;;;;;;;10.23;8.60;;;;;;;;;;5131078;28;20036;-53
2022/12/11 11:09:50;;;;;;;;;;;;;;;;;;;;;
2022/12/11 11:12:54;;;;;;;11.00;7.80;;;;;;;;;;5129927;28;20051;-56
2022/12/11 11:15:44;;;;;;;11.53;7.47;;;;;;;;;;5129758;28;20385;-57
2022/12/11 11:18:35;;;;;;;12.87;8.57;;;;;;;;;;5130018;28;20449;-57
2022/12/11 11:24:58;;;;;;;8.87;7.97;;;;;;;;;;5101216;28;20364;-56
2022/12/11 11:27:42;;;;;;;10.33;8.17;;;;;;;;;;5011351;28;20044;-55
2022/12/11 11:30:35;;;;;;;8.87;7.77;;;;;;;;;;5027856;28;20570;-56
2022/12/11 11:33:31;;;;;;;14.63;7.50;;;;;;;;;;5119184;28;20036;-55
2022/12/11 11:39:32;;;;;;;;;;;;;;;;;;;;;
2022/12/11 11:42:23;;;;;;;9.97;7.73;;;;;;;;;;5105276;28;20067;-55
2022/12/11 11:45:08;;;;;;;11.25;8.48;;;;;;;;;;5111805;28;20032;-56
2022/12/11 11:51:07;;;;;;;;;;;;;;;;;;5128979;28;20121;-56
2022/12/11 11:53:46;;;;;;;9.50;6.27;;;;;;;;;;5106247;28;19963;-56
2022/12/11 11:56:33;;;;;;;12.57;8.70;;;;;;;;;;5111585;28;20447;-57
2022/12/11 12:05:40;;;;;;;10.13;8.23;;;;;;;;;;5067447;28;20059;-54
2022/12/11 12:08:13;;;;;;;9.90;8.27;;;;;;;;;;5066093;28;20033;-57
2022/12/11 12:14:21;;;;;;;11.47;9.20;;;;;;;;;;5059951;28;20055;-56
2022/12/11 12:19:59;;;;;;;;;;;;;;;;;;5053777;28;20176;-56
2022/12/11 12:22:40;;;;;;;8.97;8.13;;;;;;;;;;5058384;28;19911;-56
2022/12/11 12:25:18;;;;;;;9.40;7.43;;;;;;;;;;5053836;28;20058;-57
2022/12/11 12:31:12;;;;;;;9.63;8.03;;;;;;;;;;5081127;28;20427;-57
2022/12/11 12:33:53;;;;;;;7.50;6.43;;;;;;;;;;5097296;28;20020;-56
2022/12/11 12:42:55;;;;;;;8.57;7.30;;;;;;;;;;5105351;28;20042;-55
2022/12/11 12:48:39;;;;;;;8.40;7.37;;;;;;;;;;5091970;28;20022;-57
2022/12/11 12:51:21;;;;;;;9.65;7.25;;;;;;;;;;5075785;28;20441;-55
2022/12/11 12:57:16;;;;;;;13.87;7.87;;;;;;;;;;5090769;28;20137;-57
2022/12/11 13:00:06;;;;;;;;;;;;;;;;;;;;;
2022/12/11 13:02:54;;;;;;;11.23;9.30;;;;;;;;;;5057353;28;20047;-59
2022/12/11 13:05:30;;;;;;;9.00;7.23;;;;;;;;;;5041066;28;20490;-57
2022/12/11 13:08:18;;;;;;;;;;;;;;;;;;;;;
2022/12/11 13:11:03;;;;;;;12.10;10.27;;;;;;;;;;5068539;28;20059;-54
2022/12/11 13:13:53;;;;;;;;;;;;;;;;;;;;;
2022/12/11 13:19:56;;;;;;;;;;;;;;;;;;;;;
2022/12/11 13:22:27;;;;;;;9.67;6.73;;;;;;;;;;5094257;28;20087;-57
2022/12/11 13:28:20;;;;;;;11.20;9.10;;;;;;;;;;5079343;28;20032;-58
2022/12/11 13:34:10;;;;;;;26.53;9.60;;;;;;;;;;5032452;28;20573;-54
2022/12/11 13:37:14;;;;;;;10.20;8.40;;;;;;;;;;5092845;28;20043;-57
2022/12/11 13:43:18;;;;;;;13.80;9.50;;;;;;;;;;5013248;28;20033;-58
2022/12/11 13:46:09;;;;;;;10.87;8.37;;;;;;;;;;5013384;28;20030;-58
2022/12/11 13:49:05;;;;;;;15.73;10.10;;;;;;;;;;4985738;28;20030;-57
2022/12/11 13:55:34;;;;;;;14.70;9.23;;;;;;;;;;4953831;29;20094;-57
2022/12/11 13:58:13;;;;;;;13.17;9.63;;;;;;;;;;5012379;28;20064;-57
2022/12/11 14:00:42;;;;;;;9.60;7.87;;;;;;;;;;5012438;28;20380;-58
2022/12/11 14:03:12;;;;;;;8.20;6.03;;;;;;;;;;5024927;28;20056;-54
2022/12/11 14:05:42;;;;;;;;;;;;;;;;;;5114823;28;20035;-54
2022/12/11 14:08:35;;;;;;;8.50;6.60;;;;;;;;;;5096269;28;20363;-58
2022/12/11 14:13:58;;;;;;;14.83;9.37;;;;;;;;;;5103136;28;20039;-58
2022/12/11 14:16:53;;;;;;;16.93;10.47;;;;;;;;;;5114324;28;20028;-58
2022/12/11 14:22:49;;;;;;;8.83;7.40;;;;;;;;;;5031398;28;20120;-56
2022/12/11 14:25:44;;;;;;;12.77;9.67;;;;;;;;;;5105734;28;20035;-58
2022/12/11 14:28:41;;;;;;;12.67;10.70;;;;;;;;;;5114383;28;20031;-57
2022/12/11 14:31:40;;;;;;;;;;;;;;;;;;;;;
2022/12/11 14:34:24;;;;;;;14.20;11.37;;;;;;;;;;5115884;28;20463;-57
2022/12/11 14:37:25;;;;;;;;;;;;;;;;;;;;;
2022/12/11 14:39:55;;;;;;;;;;;;;;;;;;;;;
2022/12/11 14:42:35;;;;;;;19.30;12.30;;;;;;;;;;5101789;28;20381;-57
2022/12/11 14:45:33;;;;;;;12.57;10.93;;;;;;;;;;5118520;28;20104;-57
2022/12/11 14:51:28;;;;;;;15.23;12.10;;;;;;;;;;5034787;28;20051;-54
2022/12/11 14:54:11;;;;;;;14.33;10.37;;;;;;;;;;5034749;28;20029;-57
2022/12/11 15:00:11;;;;;;;12.20;10.90;;;;;;;;;;5070653;28;20130;-56
2022/12/11 15:02:52;;;;;;;13.53;9.13;;;;;;;;;;5117081;28;20543;-55
2022/12/11 15:05:30;;;;;;;11.70;9.70;;;;;;;;;;5117237;28;20122;-56
2022/12/11 15:08:45;;;;;;;;;;;;;;;;;;;;;
2022/12/11 15:14:35;;;;;;;19.00;12.27;;;;;;;;;;5065089;28;20028;-57
2022/12/11 15:20:28;;;;;;;13.33;9.90;;;;;;;;;;5085358;28;20100;-56
2022/12/11 15:26:29;;;;;;;20.50;12.70;;;;;;;;;;5054451;28;20040;-57
2022/12/11 15:35:44;;;;;;;;;;;;;;;;;;;;;
2022/12/11 15:38:56;;;;;;;17.53;11.00;;;;;;;;;;5027556;28;20036;-54
2022/12/11 15:41:57;;;;;;;14.47;11.10;;;;;;;;;;5073462;28;20060;-55
2022/12/11 15:44:44;;;;;;;14.60;12.53;;;;;;;;;;4994949;28;20392;-57
2022/12/11 15:50:21;;;;;;;10.15;9.15;;;;;;;;;;5050467;28;20033;-57
2022/12/11 15:56:22;;;;;;;14.37;11.90;;;;;;;;;;5066549;28;20099;-53
2022/12/11 15:59:03;;;;;;;14.90;12.60;;;;;;;;;;5059983;28;20029;-57
2022/12/11 16:01:38;;;;;;;14.67;12.03;;;;;;;;;;5055963;28;20095;-57
2022/12/11 16:04:26;;;;;;;11.23;9.83;;;;;;;;;;5110377;28;20058;-58
2022/12/11 16:10:03;;;;;;;17.50;11.63;;;;;;;;;;5032926;28;20048;-57
2022/12/11 16:12:35;;;;;;;14.17;10.87;;;;;;;;;;5016437;28;20032;-55
2022/12/11 16:15:54;;;;;;;;;;;;;;;;;;;;;
2022/12/11 16:21:24;;;;;;;15.77;12.50;;;;;;;;;;4994663;28;20029;-57
2022/12/11 16:24:27;;;;;;;16.30;11.23;;;;;;;;;;5032598;28;20053;-57
2022/12/11 16:26:57;;;;;;;12.30;10.13;;;;;;;;;;5030729;28;20033;-57
2022/12/11 16:32:53;;;;;;;17.47;10.57;;;;;;;;;;4976625;28;20033;-55
2022/12/11 16:35:58;;;;;;;22.30;13.93;;;;;;;;;;5033604;28;20053;-57
2022/12/11 16:38:27;;;;;;;12.73;10.20;;;;;;;;;;4953874;29;20528;-59
2022/12/11 16:44:12;;;;;;;16.17;14.43;;;;;;;;;;4954857;29;20130;-54
2022/12/11 16:47:22;;;;;;;14.13;9.90;;;;;;;;;;4990126;28;20023;-57
2022/12/11 16:50:16;;;;;;;;;;;;;;;;;;;;;
2022/12/11 16:53:04;;;;;;;17.67;12.40;;;;;;;;;;5089878;28;20032;-57
2022/12/11 16:55:58;;;;;;;;;;;;;;;;;;;;;
2022/12/11 16:58:34;;;;;;;18.93;15.13;;;;;;;;;;5042047;28;20036;-57
2022/12/11 17:01:34;;;;;;;21.17;13.40;;;;;;;;;;5109394;28;20092;-55
2022/12/11 17:04:27;;;;;;;25.43;17.20;;;;;;;;;;5110628;28;20040;-55
2022/12/11 17:07:03;;;;;;;;;;;;;;;;;;;;;
2022/12/11 17:13:06;;;;;;;;;;;;;;;;;;;;;
2022/12/11 17:15:21;;;;;;;16.53;13.43;;;;;;;;;;5106313;28;20034;-55
2022/12/11 17:21:21;;;;;;;18.57;15.07;;;;;;;;;;5044584;28;20032;-55
2022/12/11 17:24:10;;;;;;;14.90;13.00;;;;;;;;;;5096748;28;20508;-57
2022/12/11 17:27:01;;;;;;;14.57;12.67;;;;;;;;;;5015886;28;20037;-58
2022/12/11 17:33:01;;;;;;;18.40;15.63;;;;;;;;;;5032294;28;20033;-57
2022/12/11 17:35:50;;;;;;;21.33;16.80;;;;;;;;;;5025493;28;20552;-55
2022/12/11 17:44:23;;;;;;;19.50;15.00;;;;;;;;;;5101131;28;20397;-58
2022/12/11 17:47:07;;;;;;;18.70;16.30;;;;;;;;;;5096910;28;20558;-57
2022/12/11 17:50:03;;;;;;;18.40;13.63;;;;;;;;;;5115075;28;20491;-57
2022/12/11 17:52:59;;;;;;;22.37;15.43;;;;;;;;;;4995570;28;20125;-56
2022/12/11 17:55:52;;;;;;;20.40;15.57;;;;;;;;;;5097780;28;20038;-59
2022/12/11 18:04:34;;;;;;;20.27;13.83;;;;;;;;;;5114872;28;20462;-57
2022/12/11 18:07:18;;;;;;;15.87;13.67;;;;;;;;;;5092080;28;20040;-55
2022/12/11 18:09:51;;;;;;;22.47;14.77;;;;;;;;;;5107059;28;20028;-54
2022/12/11 18:15:37;;;;;;;22.45;17.02;;;;;;;;;;5092182;28;20388;-57
2022/12/11 18:18:25;;;;;;;;;;;;;;;;;;;;;
2022/12/11 18:24:14;;;;;;;17.03;14.43;;;;;;;;;;5075631;28;20031;-57
2022/12/11 18:27:13;;;;;;;;;;;;;;;;;;;;;
2022/12/11 18:30:13;;;;;;;20.30;15.03;;;;;;;;;;5111683;28;20043;-53
2022/12/11 18:33:18;;;;;;;23.30;15.00;;;;;;;;;;5112875;28;20114;-56
2022/12/11 18:36:05;;;;;;;18.92;13.75;;;;;;;;;;5118043;28;20500;-57
2022/12/11 18:38:54;;;;;;;19.07;14.93;;;;;;;;;;5115230;28;20047;-56
2022/12/11 18:41:59;;;;;;;;;;;;;;;;;;;;;
2022/12/11 18:48:05;;;;;;;13.90;11.53;;;;;;;;;;5035000;28;20050;-57
2022/12/11 18:51:12;;;;;;;;;;;;;;;;;;;;;
2022/12/11 18:54:08;;;;;;;14.83;13.00;;;;;;;;;;5115408;28;20028;-57
2022/12/11 18:57:08;;;;;;;18.70;14.87;;;;;;;;;;5117331;28;20104;-58
2022/12/11 19:02:47;;;;;;;17.87;13.33;;;;;;;;;;5106243;28;20040;-56
2022/12/11 19:08:03;;;;;;;14.25;11.93;;;;;;;;;;5118388;28;20404;-55
2022/12/11 19:11:22;;;;;;;17.10;13.30;;;;;;;;;;5117242;28;20104;-57
2022/12/11 19:14:10;;;;;;;20.17;15.23;;;;;;;;;;5099087;28;20119;-54
2022/12/11 19:16:54;;;;;;;23.23;13.20;;;;;;;;;;5098777;28;20535;-57
2022/12/11 19:19:32;;;;;;;14.73;13.23;;;;;;;;;;5093785;28;20044;-56
2022/12/11 19:22:13;;;;;;;14.50;12.10;;;;;;;;;;5095460;28;20047;-56
2022/12/11 19:27:45;;;;;;;25.23;12.40;;;;;;;;;;5086325;28;20061;-57
2022/12/11 19:30:22;;;;;;;17.93;10.67;;;;;;;;;;5078191;28;20044;-57
2022/12/11 19:39:04;;;;;;;25.57;16.03;;;;;;;;;;5094426;28;20564;-57
2022/12/11 19:42:08;;;;;;;19.57;13.10;;;;;;;;;;5093274;28;20036;-57
2022/12/11 19:50:44;;;;;;;19.37;14.73;;;;;;;;;;5117251;28;20038;-57
2022/12/11 19:54:03;;;;;;;17.10;15.33;;;;;;;;;;5116012;28;20058;-57
2022/12/11 19:56:43;;;;;;;23.33;17.03;;;;;;;;;;5117126;28;20565;-56
2022/12/11 20:02:48;;;;;;;16.03;13.97;;;;;;;;;;5102609;28;20033;-56
2022/12/11 20:08:34;;;;;;;14.70;12.33;;;;;;;;;;5116863;28;20054;-57
2022/12/11 20:11:44;;;;;;;21.57;13.43;;;;;;;;;;5117622;28;20031;-57
2022/12/11 20:14:39;;;;;;;19.88;14.75;;;;;;;;;;5015511;28;20041;-57
2022/12/11 20:17:36;;;;;;;;;;;;;;;;;;;;;
2022/12/11 20:20:21;;;;;;;18.27;13.33;;;;;;;;;;5112536;28;20384;-57
2022/12/11 20:23:17;;;;;;;19.63;15.27;;;;;;;;;;5116325;28;20019;-52
2022/12/11 20:26:04;;;;;;;17.93;13.20;;;;;;;;;;5109922;28;20108;-57
2022/12/11 20:28:52;;;;;;;20.77;15.60;;;;;;;;;;5113175;28;20440;-57
2022/12/11 20:31:34;;;;;;;17.13;14.63;;;;;;;;;;5113748;28;20106;-54
2022/12/11 20:34:13;;;;;;;21.93;14.73;;;;;;;;;;5115535;28;20044;-57
2022/12/11 20:40:06;;;;;;;;;;;;;;;;;;;;;
2022/12/11 20:43:13;;;;;;;17.57;12.53;;;;;;;;;;5101741;28;20386;-57
2022/12/11 20:46:04;;;;;;;20.50;13.97;;;;;;;;;;5049668;28;20027;-55
2022/12/11 20:54:48;;;;;;;15.07;11.93;;;;;;;;;;5111502;28;20126;-54
2022/12/11 20:57:36;;;;;;;17.25;13.73;;;;;;;;;;5115664;28;20027;-55
2022/12/11 21:00:25;;;;;;;22.40;15.03;;;;;;;;;;5115249;28;20453;-52
2022/12/11 21:03:11;;;;;;;14.13;12.30;;;;;;;;;;5092550;28;20131;-57
2022/12/11 21:08:25;;;;;;;28.00;15.47;;;;;;;;;;5072471;28;20532;-56
2022/12/11 21:11:20;;;;;;;18.53;13.83;;;;;;;;;;5072188;28;20025;-58
2022/12/11 21:13:57;;;;;;;25.57;15.63;;;;;;;;;;5084618;28;20021;-58
2022/12/11 21:16:35;;;;;;;19.40;13.10;;;;;;;;;;5084680;28;20029;-56
2022/12/11 21:19:22;;;;;;;18.30;12.60;;;;;;;;;;5067331;28;20104;-57
2022/12/11 21:22:32;;;;;;;17.33;11.67;;;;;;;;;;5084812;28;20052;-57
2022/12/11 21:25:47;;;;;;;15.73;13.17;;;;;;;;;;5083972;28;20032;-58
2022/12/11 21:28:13;;;;;;;23.23;15.20;;;;;;;;;;4989057;28;20039;-57
2022/12/11 21:31:12;;;;;;;25.60;15.57;;;;;;;;;;5004963;28;20217;-58
2022/12/11 21:34:00;;;;;;;22.73;15.53;;;;;;;;;;5013041;28;20403;-57
2022/12/11 21:36:39;;;;;;;17.53;13.50;;;;;;;;;;5051077;28;20032;-55
2022/12/11 21:39:14;;;;;;;19.17;15.67;;;;;;;;;;5107359;28;20057;-56
2022/12/11 21:45:15;;;;;;;14.70;11.27;;;;;;;;;;5114527;28;20057;-57
2022/12/11 21:54:34;;;;;;;17.13;12.90;;;;;;;;;;5012129;28;20042;-54
2022/12/11 21:57:05;;;;;;;17.00;13.27;;;;;;;;;;5051947;28;20144;-56
2022/12/11 21:59:46;;;;;;;18.67;13.17;;;;;;;;;;5052213;28;20084;-55
2022/12/11 22:02:19;;;;;;;14.87;12.30;;;;;;;;;;5004364;28;20173;-57
2022/12/11 22:08:18;;;;;;;20.10;11.17;;;;;;;;;;5013353;28;20364;-53
2022/12/11 22:11:04;;;;;;;;;;;;;;;;;;;;;
2022/12/11 22:16:59;;;;;;;16.30;14.68;;;;;;;;;;4993683;28;20050;-57
2022/12/11 22:19:36;;;;;;;16.27;14.63;;;;;;;;;;4993919;28;20121;-58
2022/12/11 22:28:51;;;;;;;21.67;13.73;;;;;;;;;;5072550;28;20515;-56
2022/12/11 22:31:57;;;;;;;19.13;15.00;;;;;;;;;;5023007;28;20084;-56
2022/12/11 22:34:25;;;;;;;25.27;17.33;;;;;;;;;;5121370;28;20036;-57
2022/12/11 22:37:00;;;;;;;24.77;18.17;;;;;;;;;;5135849;28;20093;-57
2022/12/11 22:42:42;;;;;;;19.73;11.83;;;;;;;;;;5134675;28;20040;-58
2022/12/11 22:48:26;;;;;;;18.40;15.17;;;;;;;;;;5124543;28;20055;-57
2022/12/11 22:50:51;;;;;;;;;;;;;;;;;;5135294;28;20458;-56
2022/12/11 22:53:51;;;;;;;18.33;12.87;;;;;;;;;;5135653;28;20391;-58
2022/12/11 22:56:33;;;;;;;22.87;14.77;;;;;;;;;;5131354;28;20030;-58
2022/12/11 22:59:12;;;;;;;17.10;13.67;;;;;;;;;;5131453;28;20145;-56
2022/12/11 23:01:48;;;;;;;22.20;14.47;;;;;;;;;;5114005;28;20028;-56
2022/12/11 23:05:00;;;;;;;19.30;15.30;;;;;;;;;;5131664;28;20028;-53
2022/12/11 23:07:43;;;;;;;16.03;12.47;;;;;;;;;;5111786;28;20455;-58
2022/12/11 23:10:18;;;;;;;28.43;18.23;;;;;;;;;;5104981;28;20104;-57
2022/12/11 23:13:38;;;;;;;21.20;15.90;;;;;;;;;;5111681;28;20054;-56
2022/12/11 23:19:38;;;;;;;19.97;15.20;;;;;;;;;;5028226;28;20058;-57
2022/12/11 23:22:17;;;;;;;19.90;14.23;;;;;;;;;;4971114;28;20087;-57
2022/12/11 23:31:01;;;;;;;14.47;12.47;;;;;;;;;;5028444;28;20029;-57
2022/12/11 23:34:05;;;;;;;17.33;15.40;;;;;;;;;;5098344;28;20396;-57
2022/12/11 23:36:47;;;;;;;13.53;12.17;;;;;;;;;;5008617;28;20038;-56
2022/12/11 23:39:19;;;;;;;17.63;12.87;;;;;;;;;;5009171;28;20049;-58
2022/12/11 23:41:56;;;;;;;13.67;11.83;;;;;;;;;;5008447;28;20117;-57
2022/12/11 23:44:26;;;;;;;13.83;12.53;;;;;;;;;;5008776;28;20057;-55